createdAt,value
2019-06-15T00:01:57.657Z,3.62
2019-06-15T00:04:24.469Z,4.17
2019-06-15T00:06:51.238Z,3.25
2019-06-15T00:09:17.691Z,3.67
2019-06-15T00:11:44.111Z,3.47
2019-06-15T00:14:10.604Z,3.10
2019-06-15T00:16:37.212Z,3.22
2019-06-15T00:19:03.673Z,3.70
2019-06-15T00:21:30.170Z,3.22
2019-06-15T00:23:56.635Z,4.20
2019-06-15T00:26:23.085Z,3.58
2019-06-15T00:28:50.236Z,4.22
2019-06-15T00:31:16.802Z,3.62
2019-06-15T00:33:43.359Z,3.95
2019-06-15T00:36:09.931Z,3.87
2019-06-15T00:38:36.401Z,4.17
2019-06-15T00:41:03.018Z,3.90
2019-06-15T00:43:29.520Z,4.50
2019-06-15T00:45:56.248Z,4.45
2019-06-15T00:48:22.818Z,4.87
2019-06-15T00:50:49.266Z,4.83
2019-06-15T00:53:15.641Z,4.55
2019-06-15T00:55:42.400Z,4.45
2019-06-15T00:58:09.582Z,4.62
2019-06-15T01:00:36.132Z,5.50
2019-06-15T01:03:03.054Z,6.00
2019-06-15T01:05:29.567Z,5.00
2019-06-15T01:07:56.116Z,5.40
2019-06-15T01:10:22.567Z,5.47
2019-06-15T01:12:49.023Z,5.53
2019-06-15T01:15:18.547Z,5.55
2019-06-15T01:17:44.822Z,5.65
2019-06-15T01:20:13.420Z,6.20
2019-06-15T01:22:39.915Z,6.72
2019-06-15T01:25:07.250Z,5.90
2019-06-15T01:27:33.565Z,7.22
2019-06-15T01:30:00.023Z,6.22
2019-06-15T01:32:26.493Z,6.85
2019-06-15T01:34:52.925Z,6.80
2019-06-15T01:37:19.188Z,6.35
2019-06-15T01:39:46.083Z,6.58
2019-06-15T01:42:12.556Z,7.47
2019-06-15T01:44:39.508Z,6.65
2019-06-15T01:47:07.813Z,7.33
2019-06-15T01:49:34.386Z,7.00
2019-06-15T01:52:00.881Z,8.13
2019-06-15T01:54:27.460Z,7.50
2019-06-15T01:56:54.101Z,8.23
2019-06-15T01:59:21.710Z,7.50
2019-06-15T02:01:48.420Z,7.62
2019-06-15T02:04:14.855Z,7.90
2019-06-15T02:06:41.902Z,7.90
2019-06-15T02:09:08.310Z,7.90
2019-06-15T02:11:34.863Z,7.47
2019-06-15T02:14:01.612Z,8.08
2019-06-15T02:16:31.086Z,7.17
2019-06-15T02:18:57.796Z,7.67
2019-06-15T02:21:24.198Z,8.23
2019-06-15T02:23:50.700Z,7.42
2019-06-15T02:26:17.668Z,8.63
2019-06-15T02:28:44.241Z,8.55
2019-06-15T02:31:10.597Z,8.85
2019-06-15T02:33:37.242Z,8.20
2019-06-15T02:36:03.741Z,8.40
2019-06-15T02:38:30.125Z,7.70
2019-06-15T02:40:56.654Z,8.65
2019-06-15T02:43:23.089Z,8.18
2019-06-15T02:45:49.543Z,8.03
2019-06-15T02:48:16.100Z,8.20
2019-06-15T02:50:42.539Z,7.83
2019-06-15T02:53:09.064Z,8.18
2019-06-15T02:55:47.298Z,8.43
2019-06-15T02:58:04.140Z,8.73
2019-06-15T03:00:43.230Z,8.68
2019-06-15T03:03:09.890Z,8.00
2019-06-15T03:05:36.704Z,8.75
2019-06-15T03:08:03.384Z,8.23
2019-06-15T03:10:30.834Z,8.48
2019-06-15T03:12:57.405Z,8.93
2019-06-15T03:15:24.020Z,9.23
2019-06-15T03:17:50.346Z,9.20
2019-06-15T03:20:16.991Z,9.45
2019-06-15T03:22:43.483Z,8.83
2019-06-15T03:25:11.115Z,8.20
2019-06-15T03:27:37.673Z,9.33
2019-06-15T03:30:05.428Z,8.58
2019-06-15T03:32:31.944Z,9.08
2019-06-15T03:34:58.717Z,9.33
2019-06-15T03:37:25.140Z,9.95
2019-06-15T03:39:51.548Z,9.45
2019-06-15T03:42:18.169Z,9.75
2019-06-15T03:44:44.862Z,9.83
2019-06-15T03:47:11.555Z,9.00
2019-06-15T03:49:39.751Z,9.45
2019-06-15T03:52:06.318Z,9.53
2019-06-15T03:54:32.813Z,9.35
2019-06-15T03:56:59.132Z,9.70
2019-06-15T03:59:25.940Z,9.95
2019-06-15T04:01:52.769Z,10.25
2019-06-15T04:04:19.291Z,10.78
2019-06-15T04:06:46.297Z,10.70
2019-06-15T04:09:12.715Z,11.03
2019-06-15T04:11:39.282Z,10.58
2019-06-15T04:14:05.804Z,11.03
2019-06-15T04:16:34.075Z,11.25
2019-06-15T04:19:00.624Z,10.13
2019-06-15T04:21:27.337Z,10.72
2019-06-15T04:23:53.829Z,11.40
2019-06-15T04:26:20.088Z,9.70
2019-06-15T04:28:46.302Z,11.03
2019-06-15T04:31:12.906Z,10.55
2019-06-15T04:33:39.511Z,11.80
2019-06-15T04:36:06.145Z,11.18
2019-06-15T04:38:32.546Z,11.08
2019-06-15T04:41:01.556Z,11.30
2019-06-15T04:43:27.822Z,12.03
2019-06-15T04:45:54.442Z,12.50
2019-06-15T04:48:21.531Z,12.40
2019-06-15T04:50:48.523Z,10.65
2019-06-15T04:53:15.355Z,12.30
2019-06-15T04:55:42.689Z,11.33
2019-06-15T04:58:09.138Z,11.78
2019-06-15T05:00:36.189Z,12.25
2019-06-15T05:03:03.179Z,12.18
2019-06-15T05:05:30.054Z,11.40
2019-06-15T05:07:56.531Z,11.10
2019-06-15T05:10:22.978Z,11.60
2019-06-15T05:12:49.383Z,11.60
2019-06-15T05:15:16.457Z,11.57
2019-06-15T05:17:46.017Z,11.53
2019-06-15T05:20:11.116Z,10.80
2019-06-15T05:22:37.732Z,11.30
2019-06-15T05:25:05.341Z,10.40
2019-06-15T05:27:35.060Z,10.68
2019-06-15T05:30:03.624Z,11.83
2019-06-15T05:32:30.947Z,11.03
2019-06-15T05:34:57.378Z,10.90
2019-06-15T05:37:24.427Z,10.75
2019-06-15T05:39:50.785Z,9.80
2019-06-15T05:42:17.133Z,10.93
2019-06-15T05:44:43.615Z,10.68
2019-06-15T05:47:10.227Z,10.60
2019-06-15T05:49:36.749Z,10.43
2019-06-15T05:52:03.587Z,10.45
2019-06-15T05:54:30.340Z,10.13
2019-06-15T05:56:56.721Z,10.32
2019-06-15T05:59:23.103Z,9.28
2019-06-15T06:01:49.620Z,10.15
2019-06-15T06:04:16.320Z,10.50
2019-06-15T06:06:43.284Z,10.35
2019-06-15T06:09:09.825Z,12.50
2019-06-15T06:11:36.509Z,11.80
2019-06-15T06:14:03.565Z,12.93
2019-06-15T06:16:30.243Z,12.40
2019-06-15T06:18:58.576Z,12.90
2019-06-15T06:21:25.003Z,12.82
2019-06-15T06:23:51.704Z,12.23
2019-06-15T06:26:18.131Z,13.98
2019-06-15T06:28:56.465Z,12.98
2019-06-15T06:31:12.609Z,13.75
2019-06-15T06:33:39.184Z,13.40
2019-06-15T06:36:06.359Z,12.68
2019-06-15T06:38:33.238Z,12.45
2019-06-15T06:41:00.005Z,13.50
2019-06-15T06:43:26.425Z,14.18
2019-06-15T06:45:53.008Z,14.65
2019-06-15T06:48:19.674Z,13.72
2019-06-15T06:50:46.035Z,14.23
2019-06-15T06:53:12.476Z,13.90
2019-06-15T06:55:41.576Z,14.80
2019-06-15T06:58:09.014Z,15.45
2019-06-15T07:00:35.858Z,14.50
2019-06-15T07:03:02.635Z,15.50
2019-06-15T07:05:29.019Z,14.85
2019-06-15T07:07:55.393Z,16.62
2019-06-15T07:10:22.224Z,16.82
2019-06-15T07:12:48.799Z,16.95
2019-06-15T07:15:15.697Z,17.42
2019-06-15T07:17:42.553Z,18.00
2019-06-15T07:20:09.756Z,17.75
2019-06-15T07:22:36.399Z,16.12
2019-06-15T07:25:07.150Z,16.20
2019-06-15T07:27:33.900Z,15.15
2019-06-15T07:30:00.199Z,15.55
2019-06-15T07:32:26.515Z,14.40
2019-06-15T07:34:53.086Z,13.93
2019-06-15T07:37:20.139Z,14.50
2019-06-15T07:39:46.659Z,14.30
2019-06-15T07:42:13.013Z,13.53
2019-06-15T07:44:40.380Z,13.03
2019-06-15T07:47:07.723Z,12.25
2019-06-15T07:49:34.258Z,13.85
2019-06-15T07:52:00.630Z,12.65
2019-06-15T07:54:27.326Z,12.47
2019-06-15T07:56:53.811Z,11.95
2019-06-15T07:59:20.574Z,12.53
2019-06-15T08:01:47.062Z,12.00
2019-06-15T08:04:13.563Z,12.30
2019-06-15T08:06:39.963Z,11.30
2019-06-15T08:09:06.585Z,11.85
2019-06-15T08:11:34.070Z,12.00
2019-06-15T08:14:00.796Z,12.33
2019-06-15T08:16:27.588Z,11.18
2019-06-15T08:18:54.523Z,10.43
2019-06-15T08:21:21.003Z,10.30
2019-06-15T08:23:47.410Z,10.30
2019-06-15T08:26:13.786Z,10.95
2019-06-15T08:28:40.798Z,10.90
2019-06-15T08:31:07.461Z,10.28
2019-06-15T08:33:34.228Z,10.00
2019-06-15T08:36:02.319Z,9.68
2019-06-15T08:38:29.278Z,10.63
2019-06-15T08:40:56.053Z,9.10
2019-06-15T08:43:22.475Z,8.83
2019-06-15T08:45:48.925Z,9.48
2019-06-15T08:48:15.405Z,9.08
2019-06-15T08:50:41.745Z,9.08
2019-06-15T08:53:08.185Z,10.03
2019-06-15T08:55:35.044Z,8.63
2019-06-15T08:58:01.426Z,9.10
2019-06-15T09:00:27.971Z,9.43
2019-06-15T09:02:54.393Z,8.58
2019-06-15T09:05:20.789Z,8.65
2019-06-15T09:07:47.669Z,9.03
2019-06-15T09:10:16.023Z,8.53
2019-06-15T09:12:42.731Z,8.60
2019-06-15T09:15:09.860Z,8.33
2019-06-15T09:17:36.484Z,8.58
2019-06-15T09:20:07.973Z,8.08
2019-06-15T09:22:35.079Z,7.08
2019-06-15T09:25:01.757Z,7.20
2019-06-15T09:27:28.418Z,7.62
2019-06-15T09:29:54.677Z,7.17
2019-06-15T09:32:21.218Z,6.33
2019-06-15T09:34:47.956Z,5.87
2019-06-15T09:37:14.514Z,6.22
2019-06-15T09:39:41.021Z,4.58
2019-06-15T09:42:07.812Z,5.33
2019-06-15T09:44:34.473Z,5.60
2019-06-15T09:47:00.839Z,5.15
2019-06-15T09:49:27.497Z,4.80
2019-06-15T09:51:53.885Z,5.40
2019-06-15T09:54:20.173Z,4.80
2019-06-15T09:56:46.450Z,5.03
2019-06-15T09:59:25.242Z,5.10
2019-06-15T10:01:41.536Z,5.78
2019-06-15T10:04:08.604Z,5.50
2019-06-15T10:06:34.869Z,5.97
2019-06-15T10:09:02.688Z,5.58
2019-06-15T10:11:29.153Z,5.85
2019-06-15T10:13:55.625Z,5.80
2019-06-15T10:16:21.944Z,6.05
2019-06-15T10:18:48.374Z,5.40
2019-06-15T10:21:15.336Z,5.50
2019-06-15T10:23:42.015Z,4.40
2019-06-15T10:26:08.453Z,4.45
2019-06-15T10:28:34.974Z,4.58
2019-06-15T10:31:01.639Z,4.03
2019-06-15T10:33:29.768Z,4.72
2019-06-15T10:35:56.104Z,4.60
2019-06-15T10:38:22.677Z,4.70
2019-06-15T10:40:49.602Z,4.30
2019-06-15T10:43:16.102Z,4.03
2019-06-15T10:45:42.520Z,4.05
2019-06-15T10:48:09.041Z,4.25
2019-06-15T10:50:35.691Z,3.40
2019-06-15T10:53:02.168Z,3.25
2019-06-15T10:55:28.545Z,3.10
2019-06-15T10:57:55.291Z,3.47
2019-06-15T11:00:22.445Z,3.22
2019-06-15T11:02:49.383Z,3.60
2019-06-15T11:05:18.852Z,3.42
2019-06-15T11:07:45.335Z,3.17
2019-06-15T11:10:13.850Z,3.35
2019-06-15T11:12:46.522Z,3.22
2019-06-15T11:15:09.845Z,2.85
2019-06-15T11:17:36.293Z,3.27
2019-06-15T11:20:06.178Z,3.25
2019-06-15T11:22:32.675Z,3.02
2019-06-15T11:24:59.390Z,3.08
2019-06-15T11:27:25.987Z,2.83
2019-06-15T11:29:52.419Z,2.90
2019-06-15T11:32:18.726Z,2.70
2019-06-15T11:34:45.176Z,3.62
2019-06-15T11:37:11.863Z,4.30
2019-06-15T11:39:38.429Z,4.15
2019-06-15T11:42:04.686Z,4.45
2019-06-15T11:44:31.103Z,4.80
2019-06-15T11:46:57.658Z,4.37
2019-06-15T11:49:24.701Z,4.70
2019-06-15T11:51:51.101Z,5.08
2019-06-15T11:54:17.771Z,4.65
2019-06-15T11:56:44.360Z,5.55
2019-06-15T11:59:10.737Z,5.12
2019-06-15T12:01:37.298Z,4.35
2019-06-15T12:04:04.126Z,3.27
2019-06-15T12:06:30.414Z,2.62
2019-06-15T12:08:56.748Z,2.77
2019-06-15T12:11:23.404Z,2.35
2019-06-15T12:13:49.754Z,1.72
2019-06-15T12:16:16.184Z,1.40
2019-06-15T12:18:42.833Z,1.72
2019-06-15T12:21:09.254Z,1.52
2019-06-15T12:23:35.592Z,1.67
2019-06-15T12:26:01.880Z,1.80
2019-06-15T12:28:28.333Z,1.67
2019-06-15T12:30:55.056Z,1.77
2019-06-15T12:33:21.493Z,1.60
2019-06-15T12:35:48.044Z,1.50
2019-06-15T12:38:14.474Z,1.37
2019-06-15T12:40:41.130Z,0.80
2019-06-15T12:43:07.766Z,0.93
2019-06-15T12:45:34.406Z,1.00
2019-06-15T12:48:01.067Z,0.85
2019-06-15T12:50:27.710Z,0.62
2019-06-15T12:52:54.009Z,0.57
2019-06-15T12:55:20.254Z,0.70
2019-06-15T12:57:46.689Z,0.80
2019-06-15T13:00:15.335Z,0.40
2019-06-15T13:02:41.814Z,0.65
2019-06-15T13:05:09.441Z,0.57
2019-06-15T13:07:35.877Z,0.50
2019-06-15T13:10:06.442Z,0.40
2019-06-15T13:12:33.471Z,0.33
2019-06-15T13:14:59.985Z,0.35
2019-06-15T13:17:26.520Z,0.20
2019-06-15T13:19:53.130Z,0.30
2019-06-15T13:22:19.521Z,0.30
2019-06-15T13:24:46.116Z,0.57
2019-06-15T13:27:12.624Z,0.40
2019-06-15T13:29:39.619Z,0.30
2019-06-15T13:32:06.543Z,0.45
2019-06-15T13:34:32.898Z,0.30
2019-06-15T13:36:59.451Z,0.30
2019-06-15T13:39:25.781Z,0.28
2019-06-15T13:41:52.089Z,0.50
2019-06-15T13:44:18.594Z,0.40
2019-06-15T13:46:45.097Z,0.50
2019-06-15T13:49:12.088Z,0.60
2019-06-15T13:51:38.502Z,0.60
2019-06-15T13:54:04.889Z,0.75
2019-06-15T13:56:31.473Z,0.70
2019-06-15T13:58:57.780Z,0.53
2019-06-15T14:01:33.829Z,0.47
2019-06-15T14:03:52.428Z,0.50
2019-06-15T14:06:19.151Z,0.80
2019-06-15T14:08:45.937Z,0.60
2019-06-15T14:11:12.459Z,0.70
2019-06-15T14:13:39.164Z,0.68
2019-06-15T14:16:05.960Z,0.75
2019-06-15T14:18:32.358Z,0.70
2019-06-15T14:20:59.183Z,1.02
2019-06-15T14:23:26.781Z,0.80
2019-06-15T14:25:54.658Z,0.88
2019-06-15T14:28:22.312Z,0.90
2019-06-15T14:30:49.416Z,0.85
2019-06-15T14:33:16.065Z,1.00
2019-06-15T14:35:44.479Z,1.02
2019-06-15T14:38:12.863Z,1.30
2019-06-15T14:40:39.524Z,1.20
2019-06-15T14:43:06.089Z,1.05
2019-06-15T14:45:32.589Z,1.02
2019-06-15T14:47:59.312Z,1.12
2019-06-15T14:50:26.944Z,1.17
2019-06-15T14:52:53.967Z,1.15
2019-06-15T14:55:21.335Z,1.10
2019-06-15T14:57:48.030Z,1.02
2019-06-15T15:00:16.762Z,1.10
2019-06-15T15:02:43.089Z,1.15
2019-06-15T15:05:09.994Z,1.17
2019-06-15T15:07:36.969Z,1.30
2019-06-15T15:10:07.292Z,1.10
2019-06-15T15:12:33.984Z,1.15
2019-06-15T15:15:01.095Z,0.82
2019-06-15T15:17:28.250Z,1.10
2019-06-15T15:19:57.408Z,1.20
2019-06-15T15:22:23.523Z,1.47
2019-06-15T15:24:50.425Z,1.30
2019-06-15T15:27:16.896Z,1.12
2019-06-15T15:29:46.387Z,1.30
2019-06-15T15:32:25.034Z,1.10
2019-06-15T15:34:40.768Z,1.40
2019-06-15T15:37:07.177Z,1.10
2019-06-15T15:39:33.643Z,1.25
2019-06-15T15:42:00.216Z,0.98
2019-06-15T15:44:27.107Z,1.12
2019-06-15T15:46:57.004Z,1.05
2019-06-15T15:49:23.463Z,1.52
2019-06-15T15:51:50.217Z,1.30
2019-06-15T15:54:16.972Z,1.47
2019-06-15T15:56:43.683Z,1.20
2019-06-15T15:59:10.127Z,1.37
2019-06-15T16:01:37.096Z,1.27
2019-06-15T16:04:03.535Z,1.42
2019-06-15T16:06:30.195Z,1.40
2019-06-15T16:08:57.028Z,1.60
2019-06-15T16:11:23.643Z,1.35
2019-06-15T16:13:50.042Z,1.50
2019-06-15T16:16:16.668Z,1.22
2019-06-15T16:18:46.986Z,1.47
2019-06-15T16:21:16.660Z,1.50
2019-06-15T16:23:46.275Z,1.60
2019-06-15T16:26:12.432Z,1.82
2019-06-15T16:28:38.833Z,1.25
2019-06-15T16:31:12.887Z,1.40
2019-06-15T16:33:33.878Z,1.27
2019-06-15T16:36:00.294Z,1.20
2019-06-15T16:38:27.559Z,1.12
2019-06-15T16:40:56.124Z,1.10
2019-06-15T16:43:25.443Z,1.35
2019-06-15T16:45:50.714Z,1.30
2019-06-15T16:48:18.044Z,1.30
2019-06-15T16:50:46.958Z,1.10
2019-06-15T16:53:13.695Z,1.40
2019-06-15T16:55:40.391Z,1.47
2019-06-15T16:58:07.643Z,1.05
2019-06-15T17:00:36.342Z,1.62
2019-06-15T17:03:17.394Z,1.60
2019-06-15T17:05:32.363Z,1.50
2019-06-15T17:07:59.478Z,1.62
2019-06-15T17:10:39.773Z,1.60
2019-06-15T17:13:06.899Z,1.50
2019-06-15T17:15:33.922Z,1.37
2019-06-15T17:18:00.781Z,1.67
2019-06-15T17:20:49.239Z,1.47
2019-06-15T17:23:17.102Z,1.60
2019-06-15T17:25:45.791Z,1.30
2019-06-15T17:28:13.132Z,1.50
2019-06-15T17:30:39.799Z,1.47
2019-06-15T17:33:08.371Z,1.70
2019-06-15T17:35:36.252Z,1.52
2019-06-15T17:38:04.029Z,1.57
2019-06-15T17:40:30.489Z,1.85
2019-06-15T17:42:56.963Z,1.55
2019-06-15T17:45:23.591Z,1.57
2019-06-15T17:47:50.034Z,1.62
2019-06-15T17:50:20.230Z,1.30
2019-06-15T17:52:47.275Z,1.60
2019-06-15T17:55:14.571Z,1.60
2019-06-15T17:57:41.361Z,1.60
2019-06-15T18:00:08.493Z,1.32
2019-06-15T18:02:38.130Z,1.95
2019-06-15T18:05:06.948Z,1.67
2019-06-15T18:07:36.059Z,1.70
2019-06-15T18:10:07.197Z,2.10
2019-06-15T18:12:34.370Z,1.70
2019-06-15T18:15:00.819Z,1.80
2019-06-15T18:17:27.103Z,1.80
2019-06-15T18:19:53.890Z,1.85
2019-06-15T18:22:20.268Z,1.90
2019-06-15T18:24:48.133Z,1.92
2019-06-15T18:27:16.930Z,1.57
2019-06-15T18:29:43.210Z,1.87
2019-06-15T18:32:09.717Z,2.00
2019-06-15T18:34:36.858Z,1.80
2019-06-15T18:37:03.872Z,1.95
2019-06-15T18:39:30.484Z,2.00
2019-06-15T18:41:57.148Z,1.80
2019-06-15T18:44:23.478Z,2.12
2019-06-15T18:46:49.820Z,1.90
2019-06-15T18:49:16.543Z,1.95
2019-06-15T18:51:45.881Z,2.00
2019-06-15T18:54:12.445Z,1.87
2019-06-15T18:56:38.823Z,2.02
2019-06-15T18:59:07.267Z,2.02
2019-06-15T19:01:33.964Z,2.37
2019-06-15T19:04:00.635Z,2.22
2019-06-15T19:06:27.657Z,2.08
2019-06-15T19:08:54.341Z,2.02
2019-06-15T19:11:21.185Z,2.20
2019-06-15T19:13:47.484Z,2.17
2019-06-15T19:16:16.694Z,2.67
2019-06-15T19:18:43.213Z,2.72
2019-06-15T19:21:09.848Z,3.00
2019-06-15T19:23:36.947Z,3.17
2019-06-15T19:26:06.339Z,3.37
2019-06-15T19:28:33.155Z,2.92
2019-06-15T19:31:00.761Z,2.75
2019-06-15T19:33:27.564Z,2.08
2019-06-15T19:35:56.902Z,2.50
2019-06-15T19:38:23.783Z,2.60
2019-06-15T19:40:51.141Z,3.00
2019-06-15T19:43:17.686Z,2.98
2019-06-15T19:45:45.614Z,2.90
2019-06-15T19:48:12.217Z,2.27
2019-06-15T19:50:40.177Z,2.30
2019-06-15T19:53:07.989Z,2.27
2019-06-15T19:55:36.160Z,2.60
2019-06-15T19:58:06.873Z,2.60
2019-06-15T20:00:36.183Z,1.98
2019-06-15T20:03:02.995Z,2.47
2019-06-15T20:05:29.990Z,2.45
2019-06-15T20:07:57.017Z,1.95
2019-06-15T20:10:26.651Z,2.25
2019-06-15T20:12:53.024Z,1.98
2019-06-15T20:15:19.693Z,2.20
2019-06-15T20:17:46.597Z,2.45
2019-06-15T20:20:14.813Z,2.05
2019-06-15T20:22:46.631Z,2.20
2019-06-15T20:25:15.949Z,2.12
2019-06-15T20:27:42.045Z,1.87
2019-06-15T20:30:10.333Z,2.92
2019-06-15T20:32:37.550Z,2.85
2019-06-15T20:35:16.566Z,3.12
2019-06-15T20:37:37.036Z,2.72
2019-06-15T20:40:06.139Z,2.70
2019-06-15T20:42:33.166Z,2.10
2019-06-15T20:45:00.282Z,2.35
2019-06-15T20:47:27.659Z,2.75
2019-06-15T20:49:56.846Z,1.52
2019-06-15T20:52:23.515Z,2.55
2019-06-15T20:54:50.216Z,2.20
2019-06-15T20:57:16.759Z,2.15
2019-06-15T20:59:44.133Z,2.08
2019-06-15T21:02:11.066Z,2.05
2019-06-15T21:04:37.625Z,2.22
2019-06-15T21:07:06.663Z,1.95
2019-06-15T21:09:36.171Z,2.20
2019-06-15T21:12:02.538Z,2.30
2019-06-15T21:14:29.161Z,3.15
2019-06-15T21:16:56.825Z,3.45
2019-06-15T21:19:26.158Z,2.62
2019-06-15T21:21:52.347Z,2.60
2019-06-15T21:24:18.660Z,2.50
2019-06-15T21:26:45.524Z,2.05
2019-06-15T21:29:12.498Z,2.72
2019-06-15T21:31:39.255Z,2.70
2019-06-15T21:34:07.241Z,2.52
2019-06-15T21:36:37.399Z,2.75
2019-06-15T21:39:06.962Z,2.60
2019-06-15T21:41:36.627Z,2.58
2019-06-15T21:44:03.147Z,2.45
2019-06-15T21:46:30.641Z,2.52
2019-06-15T21:48:57.471Z,2.87
2019-06-15T21:51:26.987Z,2.52
2019-06-15T21:53:56.016Z,2.40
2019-06-15T21:56:25.454Z,2.62
2019-06-15T21:58:51.498Z,3.10
2019-06-15T22:01:30.642Z,3.00
2019-06-15T22:03:57.661Z,2.75
2019-06-15T22:06:26.509Z,2.92
2019-06-15T22:08:53.702Z,2.50
2019-06-15T22:11:20.664Z,3.98
2019-06-15T22:13:48.454Z,3.20
2019-06-15T22:16:16.929Z,4.00
2019-06-15T22:18:47.211Z,3.30
2019-06-15T22:21:13.271Z,3.40
2019-06-15T22:23:40.230Z,3.58
2019-06-15T22:26:06.906Z,4.35
2019-06-15T22:28:36.330Z,4.60
2019-06-15T22:31:06.431Z,4.10
2019-06-15T22:33:33.100Z,3.33
2019-06-15T22:35:59.733Z,3.72
2019-06-15T22:38:26.301Z,4.50
2019-06-15T22:41:01.514Z,3.98
2019-06-15T22:43:28.241Z,3.60
2019-06-15T22:45:56.059Z,3.10
2019-06-15T22:48:23.234Z,3.72
2019-06-15T22:50:49.933Z,3.20
2019-06-15T22:53:16.661Z,3.27
2019-06-15T22:55:43.280Z,3.15
2019-06-15T22:58:09.711Z,3.15
2019-06-15T23:00:37.584Z,3.15
2019-06-15T23:03:06.270Z,3.10
2019-06-15T23:05:34.273Z,3.37
2019-06-15T23:08:00.569Z,2.90
2019-06-15T23:10:26.866Z,3.20
2019-06-15T23:12:53.305Z,2.95
2019-06-15T23:15:19.917Z,3.40
2019-06-15T23:17:47.702Z,3.62
2019-06-15T23:20:16.893Z,3.20
2019-06-15T23:22:43.450Z,3.37
2019-06-15T23:25:10.218Z,3.83
2019-06-15T23:27:36.953Z,4.37
2019-06-15T23:30:08.666Z,4.92
2019-06-15T23:32:35.162Z,7.05
2019-06-15T23:35:06.531Z,9.83
2019-06-15T23:37:33.602Z,9.03
2019-06-15T23:40:18.620Z,9.88
2019-06-15T23:42:46.111Z,8.68
2019-06-15T23:45:16.135Z,7.55
2019-06-15T23:47:43.093Z,7.45
2019-06-15T23:50:09.988Z,6.50
2019-06-15T23:52:36.674Z,6.50
2019-06-15T23:55:06.309Z,5.17
2019-06-15T23:57:33.849Z,4.62
